Time;durP1;ratioP1;P1;durP2;ratioP2;P2;SDS_P1;SDS_P2;PMS_P1;PMS_P2;Temp;Humidity;BMP_temperature;BMP_pressure;BME280_temperature;BME280_humidity;BME280_pressure;Samples;Min_cycle;Max_cycle;Signal;HPM_P1;HPM_P2
2022/01/24 00:01:08;;;;;;;21.38;13.35;;;;;;;3.77;47.81;101507.03;3371994;29;20146;-70
2022/01/24 00:02:49;;;;;;;25.27;15.05;;;;;;;3.79;47.89;101508.59;3362692;29;20037;-74
2022/01/24 00:04:29;;;;;;;24.50;13.45;;;;;;;3.81;47.91;101512.00;3360356;29;20543;-71
2022/01/24 00:06:14;;;;;;;21.40;12.52;;;;;;;3.80;48.16;101510.31;3366715;29;20045;-72
2022/01/24 00:07:54;;;;;;;23.40;12.35;;;;;;;3.80;47.72;101510.31;3363358;29;20488;-71
2022/01/24 00:09:39;;;;;;;20.35;12.60;;;;;;;3.77;47.74;101499.13;3361774;29;20099;-71
2022/01/24 00:11:25;;;;;;;22.17;13.60;;;;;;;3.82;47.74;101507.56;3360762;29;20069;-73
2022/01/24 00:13:37;;;;;;;24.13;14.15;;;;;;;3.79;47.95;101500.69;3359468;29;20040;-71
2022/01/24 00:15:52;;;;;;;24.63;14.05;;;;;;;3.80;47.72;101510.31;3361942;29;20052;-71
2022/01/24 00:17:31;;;;;;;20.27;12.18;;;;;;;3.80;47.57;101507.69;3360934;29;20140;-72
2022/01/24 00:26:54;;;;;;;22.80;11.50;;;;;;;3.77;47.66;101501.75;3363066;29;20069;-71
2022/01/24 00:28:35;;;;;;;21.77;13.63;;;;;;;3.77;47.68;101510.53;3363253;29;20037;-70
2022/01/24 00:30:18;;;;;;;20.90;12.77;;;;;;;3.74;47.45;101513.34;3363447;29;20068;-71
2022/01/24 00:31:59;;;;;;;20.55;12.27;;;;;;;3.73;47.68;101506.41;3362002;29;20049;-71
2022/01/24 00:33:41;;;;;;;20.75;12.98;;;;;;;3.72;47.62;101513.47;3359534;29;20037;-70
2022/01/24 00:35:22;;;;;;;27.80;13.82;;;;;;;3.74;47.58;101507.25;3362960;29;20520;-72
2022/01/24 00:37:03;;;;;;;23.13;12.23;;;;;;;3.73;47.62;101511.69;3373992;29;20037;-71
2022/01/24 00:38:44;;;;;;;21.13;11.75;;;;;;;3.70;47.56;101510.09;3375067;29;20047;-71
2022/01/24 00:40:36;;;;;;;23.98;12.65;;;;;;;3.69;47.56;101508.44;3369086;29;20056;-70
2022/01/24 00:42:38;;;;;;;19.67;12.90;;;;;;;3.69;47.69;101512.81;3359309;29;20117;-72
2022/01/24 00:46:29;;;;;;;19.83;12.70;;;;;;;3.61;47.48;101501.97;3365536;29;20047;-74
2022/01/24 00:54:03;;;;;;;22.33;11.68;;;;;;;3.79;49.29;101513.88;3361420;29;20099;-77
2022/01/24 00:55:47;;;;;;;16.38;9.80;;;;;;;3.84;49.91;101516.22;3363587;29;20047;-75
2022/01/24 00:57:27;;;;;;;18.85;11.45;;;;;;;3.88;50.03;101507.16;3362315;29;20036;-74
2022/01/24 00:59:08;;;;;;;17.63;11.40;;;;;;;3.93;50.21;101510.31;3358051;29;20096;-74
2022/01/24 01:00:49;;;;;;;16.90;10.80;;;;;;;3.96;50.48;101509.25;3362698;29;20052;-73
2022/01/24 01:02:30;;;;;;;18.92;10.63;;;;;;;4.01;50.71;101501.88;3362661;29;20484;-74
2022/01/24 01:04:11;;;;;;;19.38;11.48;;;;;;;4.03;50.69;101502.59;3363552;29;20057;-72
2022/01/24 01:19:11;;;;;;;14.95;9.10;;;;;;;4.22;51.08;101500.34;3361176;29;20099;-75
2022/01/24 01:22:41;;;;;;;13.60;9.48;;;;;;;4.25;51.17;101500.13;3364451;29;20072;-74
2022/01/24 01:24:23;;;;;;;17.23;10.88;;;;;;;4.27;51.13;101500.03;3365054;29;20140;-74
2022/01/24 01:26:08;;;;;;;;;;;;;;;4.39;50.76;101501.81;3367985;29;20037;-75
2022/01/24 01:27:51;;;;;;;18.63;10.25;;;;;;;4.34;50.81;101501.28;3379112;29;19928;-73
2022/01/24 01:29:46;;;;;;;12.40;8.90;;;;;;;4.28;50.92;101493.78;3376113;29;20052;-74
2022/01/24 01:33:52;;;;;;;18.55;9.35;;;;;;;4.32;50.99;101498.75;3362913;29;20064;-74
2022/01/24 01:57:19;;;;;;;19.05;9.88;;;;;;;5.01;50.43;101516.69;3350196;29;20072;-74
2022/01/24 01:59:00;;;;;;;17.52;9.80;;;;;;;5.07;50.46;101518.00;3354199;29;20048;-74
2022/01/24 02:00:50;;;;;;;16.42;9.50;;;;;;;5.11;50.24;101528.25;3363069;29;20057;-75
2022/01/24 02:02:31;;;;;;;15.32;9.15;;;;;;;5.18;50.36;101526.81;3361555;29;20041;-75
2022/01/24 02:04:14;;;;;;;14.73;9.48;;;;;;;5.21;50.19;101516.03;3359499;29;20105;-74
2022/01/24 02:05:55;;;;;;;14.25;8.77;;;;;;;5.28;50.26;101523.50;3363168;29;20074;-75
2022/01/24 02:07:50;;;;;;;14.15;8.68;;;;;;;5.31;50.27;101521.47;3365264;29;20041;-73
2022/01/24 02:09:32;;;;;;;15.02;9.23;;;;;;;5.30;50.30;101527.72;3352456;29;20049;-74
2022/01/24 02:11:17;;;;;;;15.75;8.88;;;;;;;5.30;50.25;101529.53;3350437;29;20045;-75
2022/01/24 02:12:57;;;;;;;16.95;9.82;;;;;;;5.34;50.24;101530.97;3351230;29;20074;-75
2022/01/24 02:14:45;;;;;;;13.55;8.20;;;;;;;5.35;50.32;101537.94;3362670;29;20513;-74
2022/01/24 02:17:06;;;;;;;15.52;9.90;;;;;;;5.37;49.86;101525.44;3362823;29;20105;-76
2022/01/24 02:18:52;;;;;;;14.98;8.70;;;;;;;5.36;49.95;101523.75;3352590;29;20135;-75
2022/01/24 02:22:44;;;;;;;13.77;10.38;;;;;;;5.39;49.74;101532.28;3349703;29;20089;-74
2022/01/24 02:24:25;;;;;;;;;;;;;;;5.52;49.79;101534.84;3350789;29;20045;-75
2022/01/24 02:26:10;;;;;;;12.63;7.07;;;;;;;5.44;49.57;101534.59;3350224;29;19947;-75
2022/01/24 02:28:01;;;;;;;13.80;7.72;;;;;;;5.42;49.57;101528.56;3354754;29;20041;-75
2022/01/24 02:33:08;;;;;;;16.17;10.70;;;;;;;5.46;49.40;101530.03;3361501;29;20473;-74
2022/01/24 02:34:50;;;;;;;13.35;9.25;;;;;;;5.45;49.56;101528.38;3362363;29;20041;-76
2022/01/24 02:36:32;;;;;;;14.52;10.38;;;;;;;5.43;49.61;101525.00;3361469;29;20057;-77
2022/01/24 02:40:08;;;;;;;14.45;10.25;;;;;;;5.41;49.55;101526.91;3348626;29;20544;-74
2022/01/24 02:49:42;;;;;;;14.73;7.90;;;;;;;5.45;49.41;101528.38;3361764;29;19960;-73
2022/01/24 02:53:21;;;;;;;13.82;7.85;;;;;;;5.30;49.88;101529.53;3360992;29;20048;-76
2022/01/24 02:55:03;;;;;;;15.07;8.85;;;;;;;5.27;49.41;101525.31;3358968;29;20135;-75
2022/01/24 02:56:44;;;;;;;15.07;9.52;;;;;;;5.34;49.37;101530.97;3362560;29;20040;-76
2022/01/24 02:58:25;;;;;;;11.05;7.85;;;;;;;5.38;49.38;101537.72;3357682;29;20489;-74
2022/01/24 03:00:06;;;;;;;14.63;9.85;;;;;;;5.40;49.28;101543.75;3349284;29;20152;-75
2022/01/24 03:01:47;;;;;;;15.77;9.52;;;;;;;5.42;49.10;101544.44;3349682;29;20524;-74
2022/01/24 03:03:28;;;;;;;15.80;9.82;;;;;;;5.45;49.12;101550.34;3349515;29;20061;-75
2022/01/24 03:05:09;;;;;;;12.57;8.60;;;;;;;5.43;49.24;101525.81;3348819;29;20037;-74
2022/01/24 03:06:49;;;;;;;16.88;10.27;;;;;;;5.41;49.17;101526.91;3350070;29;20120;-74
2022/01/24 03:08:30;;;;;;;11.25;8.10;;;;;;;5.39;49.22;101524.34;3354592;29;20040;-76
2022/01/24 03:10:14;;;;;;;12.10;8.40;;;;;;;5.41;49.37;101537.47;3361419;29;20044;-75
2022/01/24 03:12:05;;;;;;;13.82;8.80;;;;;;;5.43;49.64;101530.28;3351117;29;20049;-74
2022/01/24 03:13:46;;;;;;;16.83;9.13;;;;;;;5.45;49.44;101531.00;3349107;29;20049;-74
2022/01/24 03:15:27;;;;;;;15.43;9.50;;;;;;;5.45;49.41;101528.38;3349402;29;20145;-74
2022/01/24 03:17:08;;;;;;;12.90;7.93;;;;;;;5.47;49.50;101523.78;3349469;29;20041;-74
2022/01/24 03:18:48;;;;;;;13.82;8.93;;;;;;;5.46;49.29;101527.41;3343842;29;20497;-74
2022/01/24 03:20:29;;;;;;;14.27;9.05;;;;;;;5.40;49.22;101519.94;3348072;29;20301;-73
2022/01/24 03:22:11;;;;;;;11.73;9.15;;;;;;;5.37;49.14;101521.00;3349165;29;20053;-76
2022/01/24 03:23:52;;;;;;;15.82;9.30;;;;;;;5.39;49.03;101513.78;3349585;29;20068;-76
2022/01/24 03:25:33;;;;;;;12.45;8.82;;;;;;;5.42;48.93;101507.44;3361318;29;20045;-75
2022/01/24 03:27:13;;;;;;;13.27;8.57;;;;;;;5.46;48.83;101503.59;3348533;29;20049;-76
2022/01/24 03:28:54;;;;;;;14.90;9.45;;;;;;;5.48;48.92;101501.69;3350426;29;20053;-76
2022/01/24 03:30:35;;;;;;;15.52;10.10;;;;;;;5.36;49.07;101484.09;3350768;29;20046;-75
2022/01/24 03:32:16;;;;;;;12.90;9.60;;;;;;;5.51;48.80;101500.63;3351538;29;20433;-74
2022/01/24 03:33:56;;;;;;;15.70;10.27;;;;;;;5.50;48.86;101507.72;3350988;29;20052;-75
2022/01/24 03:35:40;;;;;;;16.52;8.73;;;;;;;5.50;48.82;101510.34;3351523;29;20061;-75
2022/01/24 03:37:21;;;;;;;15.68;10.30;;;;;;;5.48;48.98;101504.34;3352087;29;20421;-76
2022/01/24 03:39:03;;;;;;;14.50;9.05;;;;;;;5.42;49.14;101499.50;3352911;29;20041;-76
2022/01/24 03:40:43;;;;;;;17.95;9.70;;;;;;;5.41;49.16;101500.47;3363829;29;20124;-74
2022/01/24 03:42:24;;;;;;;14.40;9.63;;;;;;;5.37;48.99;101496.34;3358612;29;20053;-74
2022/01/24 03:44:06;;;;;;;15.52;10.32;;;;;;;5.32;48.96;101495.84;3351597;29;20068;-75
2022/01/24 03:46:08;;;;;;;14.02;8.93;;;;;;;5.31;48.91;101494.19;3351906;29;20408;-75
2022/01/24 03:48:09;;;;;;;13.60;8.90;;;;;;;5.30;48.90;101492.50;3350367;29;20518;-76
2022/01/24 03:49:53;;;;;;;14.38;9.25;;;;;;;5.27;48.92;101487.44;3362317;29;20048;-75
2022/01/24 03:51:33;;;;;;;14.73;9.48;;;;;;;5.20;49.52;101487.91;3364702;29;20045;-76
2022/01/24 03:53:14;;;;;;;13.07;8.23;;;;;;;5.17;49.40;101480.22;3364696;29;20101;-76
2022/01/24 03:54:55;;;;;;;14.10;9.35;;;;;;;5.14;49.18;101483.09;3359972;29;20409;-73
2022/01/24 03:56:35;;;;;;;15.75;9.30;;;;;;;5.17;49.15;101488.13;3362221;29;20044;-77
2022/01/24 03:58:16;;;;;;;13.57;9.05;;;;;;;5.28;48.87;101489.13;3364064;29;20037;-77
2022/01/24 03:59:57;;;;;;;14.60;9.25;;;;;;;5.30;48.70;101487.22;3364668;29;20053;-77
2022/01/24 04:01:37;;;;;;;16.63;10.18;;;;;;;5.34;48.81;101488.66;3364390;29;20140;-76
2022/01/24 04:03:18;;;;;;;16.00;9.70;;;;;;;5.36;48.59;101487.59;3364638;29;20572;-78
2022/01/24 04:04:59;;;;;;;15.27;11.07;;;;;;;5.37;48.73;101489.28;3364408;29;20047;-77
2022/01/24 04:06:40;;;;;;;19.77;10.07;;;;;;;5.40;48.66;101488.22;3356217;29;20052;-74
2022/01/24 04:08:21;;;;;;;19.75;10.13;;;;;;;5.37;48.52;101489.28;3354761;29;20127;-74
2022/01/24 04:10:07;;;;;;;18.17;9.82;;;;;;;5.31;48.84;101476.50;3364656;29;20044;-75
2022/01/24 04:11:52;;;;;;;14.23;10.02;;;;;;;5.27;49.20;101476.84;3364485;29;20142;-76
2022/01/24 04:13:37;;;;;;;17.65;10.90;;;;;;;5.19;48.98;101480.94;3364865;29;20524;-74
2022/01/24 04:15:44;;;;;;;17.88;9.80;;;;;;;5.14;49.23;101491.00;3364341;29;20041;-75
2022/01/24 04:17:36;;;;;;;13.95;9.40;;;;;;;5.11;49.36;101487.75;3363750;29;20049;-74
2022/01/24 04:23:01;;;;;;;16.60;11.10;;;;;;;4.93;49.89;101487.31;3363722;29;20057;-74
2022/01/24 04:24:43;;;;;;;18.27;9.93;;;;;;;4.89;50.13;101496.44;3364154;29;20052;-73
2022/01/24 04:26:24;;;;;;;13.95;9.30;;;;;;;4.77;50.07;101475.22;3363062;29;20041;-72
2022/01/24 04:28:05;;;;;;;20.45;10.25;;;;;;;4.80;50.34;101479.44;3362830;29;20044;-72
2022/01/24 04:29:46;;;;;;;16.38;10.48;;;;;;;4.77;50.49;101488.44;3364172;29;20077;-72
2022/01/24 04:31:28;;;;;;;14.95;8.88;;;;;;;4.74;50.40;101493.94;3364098;29;20049;-72
2022/01/24 04:33:08;;;;;;;16.75;10.63;;;;;;;4.73;50.54;101496.72;3363911;29;20412;-73
2022/01/24 04:34:49;;;;;;;18.25;9.68;;;;;;;4.71;50.64;101491.53;3364201;29;20097;-72
2022/01/24 04:36:30;;;;;;;20.92;10.80;;;;;;;4.68;50.66;101481.19;3363915;29;20055;-72
2022/01/24 04:38:11;;;;;;;15.38;10.20;;;;;;;4.68;50.82;101481.19;3355532;29;20509;-74
2022/01/24 04:39:53;;;;;;;18.15;9.23;;;;;;;4.70;51.04;101491.63;3351237;29;20049;-73
2022/01/24 04:41:38;;;;;;;13.00;9.15;;;;;;;4.69;51.04;101487.31;3349104;29;20422;-73
2022/01/24 04:43:48;;;;;;;17.67;10.43;;;;;;;4.62;51.32;101475.50;3350904;29;20078;-73
2022/01/24 04:46:01;;;;;;;19.05;9.40;;;;;;;4.67;51.40;101483.94;3350769;29;20045;-74
2022/01/24 04:50:18;;;;;;;16.40;10.00;;;;;;;4.64;51.55;101484.19;3351134;29;20117;-74
2022/01/24 04:51:54;;;;;;;14.90;9.00;;;;;;;4.57;51.51;101478.50;3350339;29;20061;-73
2022/01/24 04:55:18;;;;;;;16.48;9.68;;;;;;;4.55;51.66;101496.25;3350435;29;20053;-73
2022/01/24 04:56:59;;;;;;;14.75;10.00;;;;;;;4.54;51.71;101499.84;3348313;29;20056;-74
2022/01/24 04:58:40;;;;;;;19.60;10.75;;;;;;;4.54;51.81;101502.47;3363636;29;20037;-73
2022/01/24 05:00:21;;;;;;;14.38;9.50;;;;;;;4.52;52.10;101501.75;3360914;29;20056;-71
2022/01/24 05:02:05;;;;;;;15.23;10.30;;;;;;;4.50;52.15;101503.66;3351199;29;20044;-73
2022/01/24 05:03:48;;;;;;;18.10;9.75;;;;;;;4.33;52.06;101481.09;3364636;29;20045;-74
2022/01/24 05:05:32;;;;;;;16.60;9.52;;;;;;;4.36;52.02;101494.94;3365284;29;20048;-73
2022/01/24 05:07:13;;;;;;;18.98;10.57;;;;;;;4.48;52.07;101513.50;3348785;29;20050;-72
2022/01/24 05:08:54;;;;;;;18.17;10.10;;;;;;;4.43;52.12;101508.53;3360356;29;20037;-72
2022/01/24 05:10:42;;;;;;;15.07;9.82;;;;;;;4.46;52.25;101512.75;3353707;29;20120;-71
2022/01/24 05:24:03;;;;;;;15.65;9.48;;;;;;;4.40;52.18;101513.19;3352810;29;20101;-73
2022/01/24 05:25:44;;;;;;;17.20;10.00;;;;;;;4.40;52.32;101505.28;3349775;29;20093;-72
2022/01/24 05:27:25;;;;;;;17.60;9.75;;;;;;;4.38;52.29;101511.50;3351445;29;20101;-72
2022/01/24 05:29:05;;;;;;;13.02;8.73;;;;;;;4.36;52.38;101518.69;3363098;29;20084;-71
2022/01/24 05:30:46;;;;;;;17.98;11.65;;;;;;;4.37;52.22;101515.09;3363854;29;20052;-71
2022/01/24 05:32:28;;;;;;;19.45;10.38;;;;;;;4.35;52.40;101524.06;3363272;29;20127;-70
2022/01/24 05:34:08;;;;;;;16.90;10.77;;;;;;;4.36;52.39;101523.97;3362953;29;20052;-71
2022/01/24 05:35:49;;;;;;;15.25;9.98;;;;;;;4.34;52.36;101533.78;3362671;29;20416;-72
2022/01/24 05:37:30;;;;;;;15.25;9.93;;;;;;;4.26;52.29;101528.22;3361272;29;20068;-71
2022/01/24 05:39:11;;;;;;;14.15;9.52;;;;;;;4.34;52.51;101531.16;3353499;29;20037;-72
2022/01/24 05:40:52;;;;;;;17.67;10.13;;;;;;;4.30;52.51;101528.84;3351383;29;20041;-75
2022/01/24 05:42:33;;;;;;;20.23;10.65;;;;;;;4.34;52.45;101532.97;3351729;29;20412;-73
2022/01/24 05:44:14;;;;;;;15.38;9.25;;;;;;;4.32;52.51;101543.63;3363488;29;20045;-73
2022/01/24 05:45:55;;;;;;;18.33;9.90;;;;;;;4.32;52.62;101540.13;3362083;29;20073;-72
2022/01/24 05:47:35;;;;;;;16.67;10.50;;;;;;;4.32;52.50;101538.34;3360872;29;20055;-75
2022/01/24 05:49:16;;;;;;;16.17;9.32;;;;;;;4.30;52.64;101540.22;3351132;29;20474;-70
2022/01/24 05:50:57;;;;;;;14.50;9.30;;;;;;;4.29;52.25;101532.44;3358881;29;20049;-73
2022/01/24 05:52:37;;;;;;;17.10;11.20;;;;;;;4.25;52.13;101529.16;3364740;29;20106;-72
2022/01/24 05:54:18;;;;;;;16.77;10.70;;;;;;;4.27;52.25;101535.19;3365993;29;20105;-72
2022/01/24 05:55:59;;;;;;;16.80;9.63;;;;;;;4.26;52.16;101533.50;3364849;29;20049;-73
2022/01/24 05:57:40;;;;;;;16.88;10.80;;;;;;;4.27;52.31;101532.53;3349977;29;20137;-72
2022/01/24 05:59:21;;;;;;;15.20;9.88;;;;;;;4.22;52.19;101529.38;3359544;29;20096;-72
2022/01/24 06:01:02;;;;;;;18.25;12.10;;;;;;;4.27;52.09;101532.53;3360846;29;20036;-72
2022/01/24 06:02:42;;;;;;;16.33;9.88;;;;;;;4.23;52.19;101527.56;3351290;29;20055;-72
2022/01/24 06:04:23;;;;;;;17.42;12.15;;;;;;;4.24;52.07;101524.00;3350032;29;20094;-72
2022/01/24 06:06:05;;;;;;;16.45;9.77;;;;;;;4.25;52.27;101526.50;3350243;29;20041;-71
2022/01/24 06:07:46;;;;;;;15.70;10.60;;;;;;;4.22;51.77;101521.47;3351975;29;20429;-71
2022/01/24 06:09:27;;;;;;;18.88;10.30;;;;;;;4.18;51.74;101525.25;3362845;29;21005;-72
2022/01/24 06:11:08;;;;;;;14.80;9.43;;;;;;;4.14;52.03;101521.16;3362637;29;20056;-73
2022/01/24 06:12:48;;;;;;;14.48;10.25;;;;;;;4.17;51.93;101536.78;3362739;29;20390;-72
2022/01/24 06:14:29;;;;;;;20.38;10.00;;;;;;;4.11;51.66;101530.13;3362624;29;20053;-72
2022/01/24 06:16:10;;;;;;;16.70;10.23;;;;;;;4.13;51.86;101537.91;3357302;29;20038;-72
2022/01/24 06:17:51;;;;;;;16.35;10.25;;;;;;;4.11;51.97;101531.94;3349793;29;20048;-73
2022/01/24 06:19:31;;;;;;;14.80;9.30;;;;;;;4.05;51.67;101519.16;3347958;29;20073;-72
2022/01/24 06:21:12;;;;;;;18.23;10.13;;;;;;;4.01;51.62;101517.69;3362781;29;21133;-73
2022/01/24 06:22:53;;;;;;;18.13;9.80;;;;;;;4.05;51.82;101529.69;3374123;29;20423;-72
2022/01/24 06:24:34;;;;;;;16.20;9.68;;;;;;;4.01;51.61;101528.25;3364754;29;20044;-72
2022/01/24 06:26:17;;;;;;;13.75;8.80;;;;;;;3.99;51.69;101530.13;3362360;29;20048;-74
2022/01/24 06:28:01;;;;;;;20.40;10.10;;;;;;;4.00;51.78;101542.38;3358399;29;20189;-72
2022/01/24 06:29:41;;;;;;;16.80;9.20;;;;;;;3.97;51.68;101537.31;3349776;29;20045;-72
2022/01/24 06:31:22;;;;;;;16.25;9.48;;;;;;;4.01;51.65;101528.25;3349828;29;20251;-71
2022/01/24 06:33:03;;;;;;;21.42;10.23;;;;;;;3.99;51.58;101535.41;3349385;29;20069;-73
2022/01/24 06:34:44;;;;;;;20.10;11.35;;;;;;;4.01;51.72;101528.25;3349772;29;20041;-71
2022/01/24 06:36:25;;;;;;;15.65;8.70;;;;;;;4.01;51.63;101529.09;3349728;29;20060;-71
2022/01/24 06:38:05;;;;;;;17.52;10.63;;;;;;;4.00;51.65;101531.81;3350250;29;20176;-72
2022/01/24 06:39:46;;;;;;;17.20;9.70;;;;;;;4.00;51.70;101531.81;3352778;29;20044;-73
2022/01/24 06:41:32;;;;;;;13.52;9.45;;;;;;;4.01;51.57;101537.00;3362551;29;20049;-74
2022/01/24 06:43:13;;;;;;;19.73;10.60;;;;;;;3.98;51.45;101531.09;3361438;29;21515;-72
2022/01/24 06:44:54;;;;;;;16.52;10.43;;;;;;;4.00;51.64;101535.31;3362177;29;20065;-72
2022/01/24 06:46:35;;;;;;;17.88;10.82;;;;;;;3.99;51.70;101530.13;3361033;29;20052;-73
2022/01/24 06:48:17;;;;;;;15.68;10.35;;;;;;;3.99;51.61;101538.06;3360729;29;20045;-71
2022/01/24 06:49:58;;;;;;;17.52;10.50;;;;;;;4.01;51.53;101536.16;3363632;29;20045;-72
2022/01/24 06:51:39;;;;;;;25.95;11.23;;;;;;;4.01;51.54;101538.81;3356056;29;20141;-73
2022/01/24 06:53:20;;;;;;;15.10;9.82;;;;;;;4.01;51.56;101538.81;3360047;29;20134;-71
2022/01/24 06:55:00;;;;;;;15.38;10.57;;;;;;;4.03;51.49;101536.91;3361195;29;20041;-73
2022/01/24 06:56:41;;;;;;;15.55;10.60;;;;;;;4.03;51.39;101526.34;3365714;29;20412;-71
2022/01/24 06:58:24;;;;;;;16.80;11.02;;;;;;;4.01;51.38;101536.16;3372520;29;20095;-71
2022/01/24 07:00:06;;;;;;;24.98;10.40;;;;;;;4.00;51.45;101535.31;3366357;29;20037;-72
2022/01/24 07:01:47;;;;;;;19.08;10.90;;;;;;;4.05;51.52;101542.91;3359014;29;20513;-72
2022/01/24 07:03:28;;;;;;;15.10;9.65;;;;;;;4.07;51.48;101538.38;3362690;29;20108;-73
2022/01/24 07:05:09;;;;;;;21.42;11.18;;;;;;;4.08;51.67;101537.41;3351211;29;20049;-72
2022/01/24 07:06:51;;;;;;;15.55;9.20;;;;;;;4.10;51.60;101538.97;3362235;29;20523;-72
2022/01/24 07:08:33;;;;;;;15.50;9.98;;;;;;;4.11;51.77;101540.69;3353200;29;20044;-71
2022/01/24 07:10:14;;;;;;;16.42;10.00;;;;;;;4.12;51.89;101536.25;3352001;29;20048;-71
2022/01/24 07:12:02;;;;;;;14.05;9.68;;;;;;;4.15;51.92;101544.78;3352351;29;20447;-73
2022/01/24 07:13:46;;;;;;;14.32;8.65;;;;;;;4.16;51.72;101540.38;3352127;29;20132;-72
2022/01/24 07:15:34;;;;;;;15.90;9.63;;;;;;;4.16;51.59;101537.75;3351893;29;20053;-74
2022/01/24 07:17:33;;;;;;;18.15;8.95;;;;;;;4.18;51.73;101542.88;3351238;29;20045;-72
2022/01/24 07:19:14;;;;;;;12.52;9.00;;;;;;;4.13;51.67;101537.91;3351933;29;20041;-72
2022/01/24 07:20:56;;;;;;;14.93;9.02;;;;;;;4.14;51.41;101539.63;3352033;29;20041;-72
2022/01/24 07:22:36;;;;;;;16.63;9.63;;;;;;;4.12;51.35;101547.63;3360949;29;20072;-72
2022/01/24 07:24:17;;;;;;;15.00;9.38;;;;;;;4.14;51.29;101539.63;3364354;29;20049;-71
2022/01/24 07:25:58;;;;;;;17.17;10.05;;;;;;;4.12;51.39;101539.72;3364485;29;20064;-70
2022/01/24 07:27:38;;;;;;;14.77;9.55;;;;;;;4.11;51.39;101539.84;3361160;29;20457;-72
2022/01/24 07:29:19;;;;;;;19.10;11.93;;;;;;;4.10;51.42;101538.97;3351453;29;20037;-71
2022/01/24 07:31:00;;;;;;;16.90;10.52;;;;;;;4.11;51.45;101542.50;3351150;29;20102;-72
2022/01/24 07:32:41;;;;;;;15.90;9.98;;;;;;;4.11;51.37;101548.59;3356028;29;20056;-71
2022/01/24 07:34:21;;;;;;;18.65;9.63;;;;;;;4.07;51.41;101538.38;3363138;29;20084;-72
2022/01/24 07:36:02;;;;;;;17.00;10.80;;;;;;;4.11;51.53;101545.13;3364630;29;20045;-73
2022/01/24 07:37:43;;;;;;;18.10;10.40;;;;;;;4.08;51.40;101534.75;3358063;29;20180;-72
2022/01/24 07:39:24;;;;;;;16.80;9.80;;;;;;;4.11;51.33;101540.69;3351830;29;20049;-73
2022/01/24 07:41:06;;;;;;;21.48;10.13;;;;;;;4.11;51.28;101534.56;3351613;29;20370;-73
2022/01/24 07:44:38;;;;;;;19.77;10.65;;;;;;;4.11;50.86;101534.56;3351693;29;20046;-72
2022/01/24 07:46:19;;;;;;;18.75;10.35;;;;;;;4.13;50.84;101538.78;3351516;29;20076;-71
2022/01/24 07:47:59;;;;;;;24.05;11.60;;;;;;;4.14;50.95;101537.00;3355815;29;20104;-73
2022/01/24 07:49:40;;;;;;;18.15;10.80;;;;;;;4.13;51.05;101536.16;3362083;29;20063;-73
2022/01/24 07:51:21;;;;;;;19.10;10.35;;;;;;;4.14;50.90;101531.72;3351474;29;20049;-73
2022/01/24 07:53:01;;;;;;;18.40;10.98;;;;;;;4.15;51.03;101534.22;3350156;29;20538;-72
2022/01/24 07:54:42;;;;;;;19.00;11.25;;;;;;;4.15;50.89;101533.38;3351417;29;20408;-71
2022/01/24 07:56:23;;;;;;;20.00;10.48;;;;;;;4.16;50.88;101527.19;3352168;29;20136;-72
2022/01/24 07:58:04;;;;;;;19.25;10.65;;;;;;;4.17;50.85;101533.28;3352301;29;20959;-72
2022/01/24 07:59:47;;;;;;;18.00;11.85;;;;;;;4.13;50.85;101527.38;3362929;29;20056;-72
2022/01/24 08:01:27;;;;;;;16.17;10.38;;;;;;;4.12;50.75;101526.53;3364019;29;20573;-72
2022/01/24 08:03:08;;;;;;;15.10;10.27;;;;;;;4.09;50.89;101520.63;3351108;29;20041;-72
2022/01/24 08:04:49;;;;;;;15.98;9.48;;;;;;;4.14;50.84;101534.34;3363537;29;20101;-72
2022/01/24 08:06:31;;;;;;;16.70;10.02;;;;;;;4.15;50.79;101533.38;3355579;29;20635;-72
2022/01/24 08:08:12;;;;;;;16.75;10.70;;;;;;;4.10;50.82;101531.06;3360417;29;20608;-72
2022/01/24 08:09:53;;;;;;;19.10;11.85;;;;;;;4.14;50.74;101526.44;3351446;29;20042;-72
2022/01/24 08:11:34;;;;;;;16.83;10.57;;;;;;;4.13;50.74;101532.66;3362174;29;20041;-73
2022/01/24 08:13:15;;;;;;;17.17;10.35;;;;;;;4.13;50.74;101533.50;3363372;29;20076;-72
2022/01/24 08:14:55;;;;;;;16.50;10.85;;;;;;;4.13;50.85;101532.66;3363552;29;20041;-73
2022/01/24 08:16:37;;;;;;;17.05;10.25;;;;;;;4.12;50.74;101530.97;3358811;29;20063;-71
2022/01/24 08:18:17;;;;;;;18.80;10.57;;;;;;;4.13;50.96;101527.38;3354362;29;20045;-71
2022/01/24 08:19:59;;;;;;;18.85;11.48;;;;;;;4.13;50.35;101530.00;3351438;29;20121;-72
2022/01/24 08:21:39;;;;;;;19.00;10.10;;;;;;;4.13;50.58;101527.38;3351711;29;20117;-72
2022/01/24 08:23:20;;;;;;;18.42;11.02;;;;;;;4.13;50.56;101524.72;3350915;29;20298;-71
2022/01/24 08:25:04;;;;;;;16.83;10.55;;;;;;;4.13;50.49;101524.72;3351624;29;20513;-72
2022/01/24 08:26:46;;;;;;;15.70;10.25;;;;;;;4.14;50.70;101529.91;3353471;29;20054;-76
2022/01/24 08:28:28;;;;;;;15.30;9.77;;;;;;;4.14;50.65;101521.16;3356914;29;20420;-73
2022/01/24 08:30:23;;;;;;;20.23;11.95;;;;;;;4.18;50.67;101524.41;3364223;29;20143;-73
2022/01/24 08:32:05;;;;;;;16.88;10.20;;;;;;;4.12;50.35;101515.13;3363931;29;20076;-72
2022/01/24 08:33:46;;;;;;;14.02;9.55;;;;;;;4.15;50.56;101520.19;3362089;29;20059;-73
2022/01/24 08:35:27;;;;;;;20.17;11.60;;;;;;;4.16;50.56;101521.91;3364013;29;20045;-73
2022/01/24 08:37:07;;;;;;;17.77;10.48;;;;;;;4.18;50.48;101524.41;3364743;29;20060;-74
2022/01/24 08:38:50;;;;;;;17.02;10.88;;;;;;;4.18;50.25;101525.25;3364946;29;20152;-74
2022/01/24 08:40:34;;;;;;;15.18;9.07;;;;;;;4.19;50.33;101531.41;3366290;29;20074;-72
2022/01/24 08:42:28;;;;;;;19.02;10.52;;;;;;;4.19;50.20;101526.13;3362503;29;20163;-73
2022/01/24 08:44:19;;;;;;;21.95;10.40;;;;;;;4.18;50.06;101535.81;3362775;29;20045;-73
2022/01/24 08:46:01;;;;;;;17.80;10.55;;;;;;;4.19;50.02;101534.88;3361399;29;20557;-74
2022/01/24 08:47:42;;;;;;;16.30;9.43;;;;;;;4.18;50.04;101525.25;3359459;29;20037;-72
2022/01/24 08:49:24;;;;;;;17.33;10.40;;;;;;;4.21;49.88;101527.69;3362782;29;20139;-73
2022/01/24 08:51:05;;;;;;;24.13;9.82;;;;;;;4.20;50.01;101522.53;3349056;29;20078;-73
2022/01/24 08:52:46;;;;;;;20.85;10.40;;;;;;;4.21;50.07;101519.78;3356116;29;20072;-73
2022/01/24 08:54:30;;;;;;;18.80;10.50;;;;;;;4.21;50.05;101517.16;3361709;29;20458;-72
2022/01/24 08:56:11;;;;;;;;;;;;;;;4.33;50.00;101513.63;3362235;29;20049;-72
2022/01/24 08:57:52;;;;;;;13.73;7.97;;;;;;;4.26;49.91;101515.03;3362718;29;20347;-73
2022/01/24 08:59:33;;;;;;;16.77;9.27;;;;;;;4.24;49.76;101516.09;3368327;29;20083;-73
2022/01/24 09:01:14;;;;;;;15.52;9.02;;;;;;;4.24;49.93;101518.72;3376435;29;20044;-73
2022/01/24 09:02:57;;;;;;;14.85;9.85;;;;;;;4.20;50.02;101512.81;3376714;29;20060;-72
2022/01/24 09:04:37;;;;;;;22.05;11.25;;;;;;;4.20;50.18;101515.44;3375404;29;20045;-71
2022/01/24 09:06:21;;;;;;;13.50;8.98;;;;;;;4.23;50.19;101517.84;3375463;29;20128;-72
2022/01/24 09:08:05;;;;;;;16.13;10.25;;;;;;;4.24;50.18;101511.66;3376033;29;20048;-73
2022/01/24 09:09:46;;;;;;;15.23;9.45;;;;;;;4.26;50.30;101515.03;3364114;29;20048;-74
2022/01/24 09:11:29;;;;;;;18.55;10.85;;;;;;;4.28;50.41;101514.91;3355790;29;20418;-73
2022/01/24 09:13:10;;;;;;;18.60;9.32;;;;;;;4.29;50.67;101519.25;3356394;29;20037;-73
2022/01/24 09:14:52;;;;;;;15.90;9.65;;;;;;;4.23;50.83;101502.03;3363173;29;20105;-74
2022/01/24 09:16:33;;;;;;;18.52;10.38;;;;;;;4.27;50.69;101506.13;3363469;29;20105;-72
2022/01/24 09:18:15;;;;;;;16.13;9.55;;;;;;;4.28;50.86;101505.19;3363263;29;20040;-73
2022/01/24 18:50:05;;;;;;;21.65;12.95;;;;;;;3.85;48.36;101152.16;3423043;23;20053;-73
2022/01/24 18:51:47;;;;;;;25.30;14.25;;;;;;;3.86;48.38;101145.91;3388563;29;20035;-74
2022/01/24 18:53:28;;;;;;;29.13;16.20;;;;;;;3.90;48.54;101142.13;3389162;29;20116;-75
2022/01/24 18:55:09;;;;;;;23.88;14.15;;;;;;;3.89;48.72;101145.69;3388349;29;20048;-76
2022/01/24 18:56:50;;;;;;;30.40;14.00;;;;;;;3.90;48.71;101136.84;3387346;29;20088;-75
2022/01/24 18:58:31;;;;;;;25.58;15.05;;;;;;;3.92;48.61;101140.22;3385596;29;20052;-73
2022/01/24 19:00:12;;;;;;;25.65;14.60;;;;;;;3.96;48.58;101134.69;3361029;29;20060;-74